createdAt,value
2022-08-03T00:01:50.358Z,61.25293
2022-08-03T00:03:50.316Z,61.28516
2022-08-03T00:06:39.127Z,61.38477
2022-08-03T00:08:40.560Z,61.73535
2022-08-03T00:10:39.137Z,61.56543
2022-08-03T00:12:39.177Z,61.54492
2022-08-03T00:14:39.277Z,61.44238
2022-08-03T00:16:39.098Z,61.50098
2022-08-03T00:18:39.184Z,61.18652
2022-08-03T00:22:10.748Z,61.76172
2022-08-03T00:24:10.717Z,61.76465
2022-08-03T00:26:10.721Z,61.53418
2022-08-03T00:28:10.764Z,61.89746
2022-08-03T00:30:10.716Z,61.83105
2022-08-03T00:32:12.381Z,61.66602
2022-08-03T00:34:12.622Z,61.83203
2022-08-03T00:37:41.986Z,62.1582
2022-08-03T00:39:39.836Z,62.41211
2022-08-03T00:41:39.847Z,62.51465
2022-08-03T00:43:39.838Z,62.67773
2022-08-03T00:45:39.842Z,62.31543
2022-08-03T00:47:39.865Z,62.75781
2022-08-03T00:49:41.355Z,62.26367
2022-08-03T00:52:33.552Z,62.69336
2022-08-03T00:54:33.549Z,62.94727
2022-08-03T00:56:33.494Z,63.12305
2022-08-03T00:58:33.504Z,63.1709
2022-08-03T01:00:33.553Z,63.24805
2022-08-03T01:02:33.493Z,63.41309
2022-08-03T01:04:33.491Z,62.83594
2022-08-03T01:07:40.409Z,63.21191
2022-08-03T01:09:40.408Z,63.19922
2022-08-03T01:11:59.703Z,64.03125
2022-08-03T01:14:00.278Z,63.93262
2022-08-03T01:15:40.360Z,63.50977
2022-08-03T01:17:41.731Z,63.63672
2022-08-03T01:19:40.356Z,63.29395
2022-08-03T01:22:45.326Z,63.81348
2022-08-03T01:24:45.373Z,63.67676
2022-08-03T01:26:45.292Z,63.97363
2022-08-03T01:28:45.290Z,64.19922
2022-08-03T01:30:45.292Z,63.79004
2022-08-03T01:33:00.433Z,63.77051
2022-08-03T01:34:45.285Z,63.74219
2022-08-03T01:37:39.036Z,64.30078
2022-08-03T01:39:39.016Z,64.0957
2022-08-03T01:41:38.840Z,64.5957
2022-08-03T01:43:55.654Z,64.31836
2022-08-03T01:45:38.840Z,64.25
2022-08-03T01:47:39.358Z,64.0918
2022-08-03T01:49:39.148Z,64.44824
2022-08-03T01:52:35.102Z,65.0166
2022-08-03T01:54:35.035Z,65.12695
2022-08-03T01:56:35.085Z,64.93945
2022-08-03T01:58:35.045Z,65.15918
2022-08-03T02:00:35.021Z,64.87891
2022-08-03T02:02:35.530Z,64.75488
2022-08-03T02:04:35.049Z,64.71582
2022-08-03T02:06:59.005Z,65.49707
2022-08-03T02:08:40.561Z,65.4043
2022-08-03T02:10:40.573Z,65.125
2022-08-03T02:12:40.600Z,64.76953
2022-08-03T02:14:40.538Z,64.88574
2022-08-03T02:16:40.558Z,65.2832
2022-08-03T02:18:40.542Z,65.15723
2022-08-03T02:20:40.530Z,64.81445
2022-08-03T02:23:45.519Z,65.10938
2022-08-03T02:25:45.460Z,65.3584
2022-08-03T02:27:45.482Z,65.40137
2022-08-03T02:29:45.472Z,65.76074
2022-08-03T02:31:45.450Z,65.58203
2022-08-03T02:33:45.516Z,65.56055
2022-08-03T02:35:45.453Z,65.3252
2022-08-03T02:38:30.434Z,65.87109
2022-08-03T02:40:30.400Z,66.37598
2022-08-03T02:42:30.403Z,66.22754
2022-08-03T02:44:30.407Z,66.52637
2022-08-03T02:46:30.404Z,66.09668
2022-08-03T02:48:30.422Z,66.34863
2022-08-03T02:50:30.441Z,66.45215
2022-08-03T02:54:20.826Z,67.18848
2022-08-03T02:56:20.810Z,67.05957
2022-08-03T02:58:20.823Z,66.39746
2022-08-03T03:00:28.736Z,67.0752
2022-08-03T03:02:20.814Z,66.4502
2022-08-03T03:04:24.967Z,65.95117
2022-08-03T03:06:23.476Z,66.30664
2022-08-03T03:09:40.162Z,66.08887
2022-08-03T03:11:28.978Z,66.16602
2022-08-03T03:13:28.993Z,66.43262
2022-08-03T03:15:29.008Z,66.59473
2022-08-03T03:17:28.948Z,66.89355
2022-08-03T03:19:28.949Z,66.83301
2022-08-03T03:21:29.009Z,66.02246
2022-08-03T03:23:59.155Z,66.23242
2022-08-03T03:25:59.135Z,66.94824
2022-08-03T03:27:59.187Z,66.98145
2022-08-03T03:29:59.153Z,67.10547
2022-08-03T03:32:02.768Z,66.9668
2022-08-03T03:33:59.135Z,67.17871
2022-08-03T03:35:59.114Z,66.84863
2022-08-03T03:39:33.903Z,66.75977
2022-08-03T03:41:34.975Z,65.51855
2022-08-03T03:43:33.899Z,62.99902
2022-08-03T03:45:33.897Z,60.33887
2022-08-03T03:47:33.891Z,57.25293
2022-08-03T03:49:34.743Z,55.57715
2022-08-03T03:51:33.989Z,56.39941
2022-08-03T03:54:20.629Z,54.98047
2022-08-03T03:56:20.658Z,54.11328
2022-08-03T03:58:25.046Z,53.91016
2022-08-03T04:00:20.680Z,53.31445
2022-08-03T04:02:20.626Z,53.19141
2022-08-03T04:04:20.636Z,51.78223
2022-08-03T04:06:20.715Z,51.79883
2022-08-03T04:10:15.128Z,47.12012
2022-08-03T04:12:14.744Z,43.50977
2022-08-03T04:14:14.137Z,40.6123
2022-08-03T04:16:14.117Z,40.77051
2022-08-03T04:18:14.116Z,38.21191
2022-08-03T04:20:14.143Z,38.32031
2022-08-03T04:22:14.745Z,38.31445
2022-08-03T04:24:56.342Z,37.01367
2022-08-03T04:26:56.333Z,36.35645
2022-08-03T04:28:56.351Z,38.47266
2022-08-03T04:30:56.349Z,38.44629
2022-08-03T04:32:56.374Z,39.04883
2022-08-03T04:34:56.367Z,39.32715
2022-08-03T04:36:56.319Z,39.9502
2022-08-03T04:40:37.532Z,38.77539
2022-08-03T04:42:37.491Z,37.35059
2022-08-03T04:44:37.534Z,35.63574
2022-08-03T04:46:37.486Z,35.13574
2022-08-03T04:48:37.536Z,33.75879
2022-08-03T04:50:37.535Z,31.59766
2022-08-03T04:52:37.549Z,30.0957
2022-08-03T04:55:26.710Z,29.125
2022-08-03T04:57:27.405Z,28.67969
2022-08-03T04:59:26.729Z,28.91309
2022-08-03T05:01:26.603Z,28.1709
2022-08-03T05:03:26.507Z,28.8252
2022-08-03T05:05:50.425Z,29.26855
2022-08-03T05:07:36.751Z,30.35059
2022-08-03T05:10:16.827Z,32.69824
2022-08-03T05:12:13.009Z,35.07715
2022-08-03T05:14:10.779Z,35.375
2022-08-03T05:16:10.762Z,37.31543
2022-08-03T05:18:14.501Z,37.82031
2022-08-03T05:20:10.812Z,39.48633
2022-08-03T05:22:10.762Z,39.30762
2022-08-03T05:26:08.423Z,40.7373
2022-08-03T05:28:08.840Z,41.14453
2022-08-03T05:30:26.537Z,42.55176
2022-08-03T05:32:08.843Z,44.73828
2022-08-03T05:34:08.463Z,44.76367
2022-08-03T05:36:08.378Z,44.95703
2022-08-03T05:38:09.452Z,45.08984
2022-08-03T05:41:36.462Z,43.95996
2022-08-03T05:43:14.931Z,43.29492
2022-08-03T05:45:14.928Z,44.72656
2022-08-03T05:47:14.949Z,44.16113
2022-08-03T05:49:15.073Z,46.50684
2022-08-03T05:51:14.967Z,47.13965
2022-08-03T05:53:15.883Z,47.15332
2022-08-03T05:56:17.142Z,48.58887
2022-08-03T05:58:16.626Z,48.71289
2022-08-03T06:00:15.802Z,48.20996
2022-08-03T06:02:16.143Z,47.77539
2022-08-03T06:04:15.594Z,48.07422
2022-08-03T06:06:15.698Z,48.5127
2022-08-03T06:08:15.837Z,48.09863
2022-08-03T06:11:31.065Z,48.48926
2022-08-03T06:13:30.539Z,46.56543
2022-08-03T06:15:30.598Z,48.91699
2022-08-03T06:17:37.912Z,49.09961
2022-08-03T06:19:30.552Z,46.7959
2022-08-03T06:21:31.163Z,47.56543
2022-08-03T06:23:53.637Z,46.06445
2022-08-03T06:26:27.661Z,47.09082
2022-08-03T06:28:52.120Z,47.90332
2022-08-03T06:30:27.345Z,49.75879
2022-08-03T06:32:27.254Z,49.44824
2022-08-03T06:34:35.725Z,49.84961
2022-08-03T06:36:27.254Z,49.32324
2022-08-03T06:38:27.192Z,49.76563
2022-08-03T06:41:05.192Z,47.71777
2022-08-03T06:43:12.192Z,48.86719
2022-08-03T06:45:05.198Z,48.07227
2022-08-03T06:47:05.167Z,45.3623
2022-08-03T06:49:05.358Z,44.8457
2022-08-03T06:51:06.955Z,45.97656
2022-08-03T06:53:05.065Z,45.24219
2022-08-03T06:55:05.236Z,45.07715
2022-08-03T06:56:52.335Z,43.7959
2022-08-03T06:58:52.269Z,42.6748
2022-08-03T07:00:52.317Z,42.87402
2022-08-03T07:02:58.622Z,42.93555
2022-08-03T07:04:52.177Z,42.00098
2022-08-03T07:06:52.127Z,41.68555
2022-08-03T07:08:59.360Z,41.45605
2022-08-03T07:11:42.988Z,40.49414
2022-08-03T07:13:42.811Z,42.22559
2022-08-03T07:15:54.683Z,41.48242
2022-08-03T07:17:42.717Z,41.74023
2022-08-03T07:19:42.609Z,40.11133
2022-08-03T07:21:42.800Z,40.68457
2022-08-03T07:23:45.705Z,38.99316
2022-08-03T07:26:28.949Z,40.50586
2022-08-03T07:28:29.185Z,39.89063
2022-08-03T07:30:29.014Z,39.30176
2022-08-03T07:32:29.230Z,39.50488
2022-08-03T07:34:29.628Z,39.50195
2022-08-03T07:36:29.132Z,38.1875
2022-08-03T07:38:31.883Z,39.25195
2022-08-03T07:40:32.176Z,38.66309
2022-08-03T07:42:17.016Z,37.74902
2022-08-03T07:44:16.540Z,36.31836
2022-08-03T07:46:16.606Z,39.05664
2022-08-03T07:48:16.570Z,38.45996
2022-08-03T07:50:16.568Z,38.33398
2022-08-03T07:52:17.262Z,37.92578
2022-08-03T07:54:16.505Z,39.66797
2022-08-03T07:57:40.259Z,38.06836
2022-08-03T07:59:49.013Z,36.2832
2022-08-03T08:01:38.568Z,38.01953
2022-08-03T08:03:52.527Z,37.4082
2022-08-03T08:05:38.294Z,37.13379
2022-08-03T08:07:38.303Z,37.62012
2022-08-03T08:09:38.312Z,37.53809
2022-08-03T08:12:32.145Z,36.72852
2022-08-03T08:14:32.131Z,37.22266
2022-08-03T08:16:32.029Z,37.31348
2022-08-03T08:18:32.063Z,37.94727
2022-08-03T08:20:32.379Z,37.5
2022-08-03T08:22:32.843Z,36.80957
2022-08-03T08:24:31.989Z,35.48438
2022-08-03T08:28:21.855Z,36.91016
2022-08-03T08:29:46.898Z,36.04395
2022-08-03T08:31:36.284Z,36.31055
2022-08-03T08:34:03.465Z,35.38574
2022-08-03T08:35:36.073Z,37.13379
2022-08-03T08:37:36.105Z,38.25098
2022-08-03T08:39:36.134Z,36.85938
2022-08-03T08:42:58.617Z,36.35156
2022-08-03T08:44:46.701Z,36.22559
2022-08-03T08:46:46.327Z,36.01074
2022-08-03T08:48:46.398Z,35.21582
2022-08-03T08:50:46.685Z,35.74121
2022-08-03T08:52:46.460Z,35.79199
2022-08-03T08:54:46.384Z,34.98828
2022-08-03T08:58:23.447Z,34.49219
2022-08-03T09:00:23.254Z,37.74707
2022-08-03T09:02:23.257Z,34.42285
2022-08-03T09:04:23.263Z,35.14551
2022-08-03T09:06:23.419Z,35.07422
2022-08-03T09:08:23.346Z,33.80469
2022-08-03T09:10:23.380Z,36.07227
2022-08-03T09:12:53.960Z,34.21875
2022-08-03T09:15:16.271Z,33.84082
2022-08-03T09:16:53.908Z,34.4082
2022-08-03T09:18:53.914Z,34.71777
2022-08-03T09:20:54.074Z,33.96582
2022-08-03T09:22:53.927Z,33.1416
2022-08-03T09:25:23.153Z,33.97266
2022-08-03T09:28:56.464Z,31.58984
2022-08-03T09:30:38.109Z,33.37793
2022-08-03T09:32:38.362Z,33.49512
2022-08-03T09:34:38.266Z,34.33887
2022-08-03T09:36:38.377Z,34.44727
2022-08-03T09:38:38.266Z,33.81934
2022-08-03T09:40:38.289Z,36.14551
2022-08-03T09:43:54.867Z,33.0791
2022-08-03T09:45:55.093Z,35.36719
2022-08-03T09:47:55.115Z,33.75
2022-08-03T09:49:55.113Z,35.11035
2022-08-03T09:52:30.142Z,35.5957
2022-08-03T09:54:00.478Z,33.9873
2022-08-03T09:56:33.154Z,32.74316
2022-08-03T09:58:43.595Z,33.97656
2022-08-03T10:00:43.699Z,33.12598
2022-08-03T10:02:43.536Z,33.08496
2022-08-03T10:04:43.546Z,31.3125
2022-08-03T10:06:43.584Z,30.57617
2022-08-03T10:08:43.638Z,31.99023
2022-08-03T10:10:43.509Z,32.84668
2022-08-03T10:14:02.420Z,31.27539
2022-08-03T10:16:20.706Z,30.85352
2022-08-03T10:17:55.844Z,32.08203
2022-08-03T10:19:55.706Z,31.00098
2022-08-03T10:21:55.608Z,30.42578
2022-08-03T10:23:55.947Z,30.09863
2022-08-03T10:25:55.661Z,28.58691
2022-08-03T10:29:13.309Z,29.52832
2022-08-03T10:31:12.357Z,30.8125
2022-08-03T10:33:50.551Z,31.89355
2022-08-03T10:35:21.518Z,32.2041
2022-08-03T10:37:12.102Z,31.6084
2022-08-03T10:39:18.966Z,32.13477
2022-08-03T10:41:12.508Z,30.92969
2022-08-03T10:43:50.192Z,30.58887
2022-08-03T10:45:50.394Z,31.65723
2022-08-03T10:47:50.105Z,31.19531
2022-08-03T10:49:50.233Z,28.5498
2022-08-03T10:51:54.675Z,30.20996
2022-08-03T10:53:55.818Z,30.55664
2022-08-03T10:55:50.287Z,31.1123
2022-08-03T10:59:27.610Z,32.09668
2022-08-03T11:01:13.594Z,31.0918
2022-08-03T11:03:13.258Z,32.84473
2022-08-03T11:05:13.528Z,31.23828
2022-08-03T11:07:13.516Z,28.91113
2022-08-03T11:09:13.349Z,29.81445
2022-08-03T11:11:13.820Z,29.27441
2022-08-03T11:14:32.898Z,30.72266
2022-08-03T11:16:32.458Z,30.81055
2022-08-03T11:18:32.435Z,28.74023
2022-08-03T11:20:32.494Z,32.53516
2022-08-03T11:22:32.437Z,28.50195
2022-08-03T11:24:32.675Z,29.25879
2022-08-03T11:26:32.407Z,29.19922
2022-08-03T11:29:22.391Z,29.53125
2022-08-03T11:31:49.114Z,27.2207
2022-08-03T11:33:22.499Z,29.23633
2022-08-03T11:35:22.261Z,28.2207
2022-08-03T11:37:23.643Z,29.69727
2022-08-03T11:39:22.456Z,29.79492
2022-08-03T11:41:22.384Z,28.86426
2022-08-03T11:44:25.714Z,30.19824
2022-08-03T11:46:30.167Z,29.11816
2022-08-03T11:48:25.338Z,29.39258
2022-08-03T11:50:25.345Z,29.20215
2022-08-03T11:52:28.824Z,29.1416
2022-08-03T11:54:25.355Z,29.94824
2022-08-03T11:56:25.333Z,29.40625
2022-08-03T11:59:24.517Z,28.26855
2022-08-03T12:01:24.451Z,29.58594
2022-08-03T12:03:24.657Z,31.10938
2022-08-03T12:05:26.300Z,30.87598
2022-08-03T12:08:02.857Z,31.36035
2022-08-03T12:09:24.430Z,29.67871
2022-08-03T12:11:24.506Z,29.76367
2022-08-03T12:13:57.250Z,29.70313
2022-08-03T12:14:53.782Z,30.13184
2022-08-03T12:16:53.842Z,30.69824
2022-08-03T12:18:53.772Z,30.91699
2022-08-03T12:20:53.825Z,31.07617
2022-08-03T12:22:53.945Z,32.19434
2022-08-03T12:24:54.068Z,32.43652
2022-08-03T12:27:00.231Z,31.59375
2022-08-03T12:28:53.792Z,31.4668
2022-08-03T12:29:59.916Z,32.3291
2022-08-03T12:31:59.490Z,32.50293
2022-08-03T12:33:59.714Z,34.06152
2022-08-03T12:35:59.473Z,34.46875
2022-08-03T12:37:59.518Z,34.51855
2022-08-03T12:40:09.907Z,35.59473
2022-08-03T12:41:59.558Z,34.61621
2022-08-03T12:43:59.655Z,34.78027
2022-08-03T12:45:55.229Z,34.57617
2022-08-03T12:47:55.291Z,34.18555
2022-08-03T12:49:55.437Z,34.22266
2022-08-03T12:51:55.354Z,33.22266
2022-08-03T12:53:55.198Z,34.78906
2022-08-03T12:56:06.176Z,33.19824
2022-08-03T12:57:55.386Z,33.61816
2022-08-03T13:00:37.236Z,33.3457
2022-08-03T13:02:38.183Z,33.91113
2022-08-03T13:04:36.166Z,34.37695
2022-08-03T13:06:36.184Z,34.28613
2022-08-03T13:08:36.209Z,33.68555
2022-08-03T13:10:36.204Z,32.6084
2022-08-03T13:12:36.200Z,31.60352
2022-08-03T13:15:47.867Z,31.50391
2022-08-03T13:17:39.152Z,31.28125
2022-08-03T13:19:35.528Z,31.30762
2022-08-03T13:21:53.320Z,31.29785
2022-08-03T13:23:35.564Z,31.20605
2022-08-03T13:25:35.622Z,31.81641
2022-08-03T13:28:02.897Z,32.03809
2022-08-03T13:31:25.925Z,30.2168
2022-08-03T13:33:24.580Z,31.27246
2022-08-03T13:35:24.582Z,32.25586
2022-08-03T13:37:25.475Z,32.3125
2022-08-03T13:39:32.928Z,30.24805
2022-08-03T13:41:31.522Z,30.01563
2022-08-03T13:43:24.545Z,29.87793
2022-08-03T13:45:56.634Z,34.25
2022-08-03T13:47:48.028Z,33.98828
2022-08-03T13:50:00.660Z,34.73926
2022-08-03T13:51:48.031Z,35.44238
2022-08-03T13:53:48.011Z,34.29004
2022-08-03T13:55:48.005Z,34.6416
2022-08-03T13:58:02.136Z,35.45313
2022-08-03T13:59:47.958Z,35.94629
2022-08-03T14:01:00.024Z,37.10742
2022-08-03T14:03:14.020Z,37.73535
2022-08-03T14:05:00.031Z,37.22363
2022-08-03T14:07:00.135Z,36.24902
2022-08-03T14:09:00.960Z,37.33691
2022-08-03T14:11:00.071Z,37.77734
2022-08-03T14:13:01.818Z,37.69434
2022-08-03T14:15:02.024Z,36.99805
2022-08-03T14:16:18.476Z,36.22852
2022-08-03T14:18:29.393Z,37.67871
2022-08-03T14:20:39.074Z,37.03906
2022-08-03T14:22:18.066Z,37.44434
2022-08-03T14:24:18.367Z,37.79883
2022-08-03T14:26:18.285Z,37.7373
2022-08-03T14:28:18.492Z,37.49121
2022-08-03T14:32:09.353Z,38.16309
2022-08-03T14:33:26.680Z,37.84766
2022-08-03T14:35:29.259Z,37.38184
2022-08-03T14:37:26.793Z,37.68555
2022-08-03T14:39:27.094Z,38.13379
2022-08-03T14:41:26.772Z,38.14844
2022-08-03T14:43:34.415Z,38.60156
2022-08-03T14:46:56.740Z,37.52051
2022-08-03T14:50:35.403Z,37.94141
2022-08-03T14:50:56.916Z,36.51367
2022-08-03T14:52:56.807Z,36.52246
2022-08-03T14:54:56.791Z,37.33496
2022-08-03T14:56:58.792Z,37.97461
2022-08-03T14:58:56.820Z,36.04102
2022-08-03T15:02:06.552Z,35.99121
2022-08-03T15:03:51.634Z,35.91211
2022-08-03T15:05:51.681Z,37.85254
2022-08-03T15:07:51.564Z,38.05469
2022-08-03T15:09:51.655Z,38.43066
2022-08-03T15:11:53.238Z,37.42383
2022-08-03T15:13:51.690Z,37.05469
2022-08-03T15:17:23.990Z,36.81836
2022-08-03T15:20:00.201Z,37.82129
2022-08-03T15:21:46.468Z,37.38867
2022-08-03T15:23:23.987Z,35.74609
2022-08-03T15:26:02.745Z,37.63965
2022-08-03T15:27:23.953Z,39.03613
2022-08-03T15:30:04.599Z,39.06055
2022-08-03T15:32:09.675Z,40.4668
2022-08-03T15:34:03.699Z,40.14063
2022-08-03T15:36:03.790Z,40.59863
2022-08-03T15:38:09.836Z,39.74316
2022-08-03T15:40:03.847Z,39.93457
2022-08-03T15:42:03.853Z,39.76172
2022-08-03T15:44:09.537Z,40.01367
2022-08-03T15:47:36.763Z,39.48535
2022-08-03T15:49:36.501Z,39.76953
2022-08-03T15:51:36.698Z,38.93359
2022-08-03T15:53:36.648Z,39.68066
2022-08-03T15:55:36.814Z,41.71582
2022-08-03T15:58:59.476Z,40.27539
2022-08-03T15:59:37.049Z,40.22656
2022-08-03T16:02:41.302Z,40.41016
2022-08-03T16:04:41.241Z,40.59766
2022-08-03T16:06:41.333Z,41.20508
2022-08-03T16:08:41.440Z,41.41113
2022-08-03T16:10:41.372Z,42.43555
2022-08-03T16:12:41.142Z,42.3877
2022-08-03T16:14:53.299Z,43.27246
2022-08-03T16:18:06.405Z,42.2207
2022-08-03T16:20:29.159Z,41.19434
2022-08-03T16:22:07.214Z,42.14746
2022-08-03T16:24:17.396Z,42.40332
2022-08-03T16:26:09.380Z,42.16797
2022-08-03T16:28:14.561Z,43.2627
2022-08-03T16:30:06.406Z,42.09863
2022-08-03T16:32:44.354Z,42.84668
2022-08-03T16:34:44.812Z,43.31445
2022-08-03T16:36:44.714Z,43.06445
2022-08-03T16:38:44.654Z,43.22559
2022-08-03T16:40:44.465Z,43.67676
2022-08-03T16:42:44.438Z,44.2627
2022-08-03T16:44:47.389Z,45.33691
2022-08-03T16:47:40.523Z,45.25098
2022-08-03T16:49:52.830Z,45.04004
2022-08-03T16:51:50.184Z,43.6084
2022-08-03T16:53:51.843Z,42.69824
2022-08-03T16:55:52.438Z,44.04492
2022-08-03T16:57:56.792Z,44.50879
2022-08-03T16:59:40.703Z,43.39355
2022-08-03T17:01:39.840Z,43.99414
2022-08-03T17:03:19.220Z,45.46484
2022-08-03T17:05:04.392Z,45.63477
2022-08-03T17:07:04.379Z,45.82129
2022-08-03T17:09:09.768Z,45.73145
2022-08-03T17:11:04.299Z,44.88672
2022-08-03T17:13:05.839Z,45.69922
2022-08-03T17:15:04.626Z,45.88574
2022-08-03T17:18:02.918Z,46.79395
2022-08-03T17:20:07.943Z,47.0498
2022-08-03T17:22:05.019Z,47.17871
2022-08-03T17:24:02.665Z,47.42871
2022-08-03T17:26:07.576Z,47.86328
2022-08-03T17:28:43.047Z,48.08203
2022-08-03T17:30:02.886Z,48.35156
2022-08-03T17:32:09.366Z,48.28516
2022-08-03T17:33:55.065Z,48.89453
2022-08-03T17:35:45.464Z,49.40625
2022-08-03T17:37:57.803Z,49.41309
2022-08-03T17:39:58.992Z,49.5166
2022-08-03T17:41:50.481Z,48.53223
2022-08-03T17:44:14.865Z,48.67969
2022-08-03T17:45:55.168Z,48.51758
2022-08-03T17:49:01.976Z,48.11133
2022-08-03T17:51:02.057Z,48.01855
2022-08-03T17:53:14.511Z,49.32715
2022-08-03T17:55:51.407Z,49.24805
2022-08-03T17:57:21.791Z,49.83203
2022-08-03T17:59:08.955Z,49.51953
2022-08-03T18:01:02.219Z,47.78418
2022-08-03T18:03:58.207Z,49.07617
2022-08-03T18:06:09.126Z,49.63281
2022-08-03T18:07:41.605Z,47.89258
2022-08-03T18:10:02.899Z,47.64258
2022-08-03T18:11:45.781Z,49.71875
2022-08-03T18:13:38.631Z,48.41699
2022-08-03T18:15:36.125Z,49.51953
2022-08-03T18:17:54.795Z,48.81445
2022-08-03T18:20:01.523Z,48.48633
2022-08-03T18:22:02.485Z,48.88281
2022-08-03T18:23:51.032Z,48.80664
2022-08-03T18:25:58.144Z,48.28418
2022-08-03T18:27:47.775Z,49.35449
2022-08-03T18:29:47.707Z,49.64648
2022-08-03T18:32:00.321Z,47.53711
2022-08-03T18:34:59.337Z,49.93359
2022-08-03T18:36:59.680Z,49.83984
2022-08-03T18:39:00.394Z,50.31934
2022-08-03T18:41:00.832Z,50.5293
2022-08-03T18:45:15.099Z,50.77832
2022-08-03T18:47:16.016Z,50.58496
2022-08-03T18:49:50.879Z,50.3457
2022-08-03T18:51:57.571Z,50.61328
2022-08-03T18:54:02.065Z,50.52246
2022-08-03T18:56:01.766Z,51.2334
2022-08-03T18:57:51.481Z,51.23438
2022-08-03T18:59:52.897Z,51.1748
2022-08-03T19:02:03.869Z,51.32422
2022-08-03T19:05:13.800Z,51.06348
2022-08-03T19:07:13.441Z,51.01953
2022-08-03T19:09:13.469Z,50.92969
2022-08-03T19:11:13.467Z,50.70801
2022-08-03T19:13:14.235Z,50.73535
2022-08-03T19:15:15.923Z,50.14746
2022-08-03T19:17:13.500Z,49.9707
2022-08-03T19:20:28.289Z,49.73926
2022-08-03T19:22:27.255Z,49.96289
2022-08-03T19:24:26.744Z,49.74707
2022-08-03T19:26:31.436Z,49.60254
2022-08-03T19:28:30.298Z,49.42285
2022-08-03T19:30:26.715Z,49.27051
2022-08-03T19:32:26.793Z,48.99902
2022-08-03T19:35:19.416Z,48.39648
2022-08-03T19:37:22.194Z,48.5625
2022-08-03T19:39:19.114Z,48.92676
2022-08-03T19:41:21.496Z,48.93555
2022-08-03T19:43:18.307Z,49.21094
2022-08-03T19:45:18.238Z,49.89941
2022-08-03T19:47:18.320Z,49.59863
2022-08-03T19:50:30.157Z,50.17871
2022-08-03T19:52:32.444Z,50.20508
2022-08-03T19:54:32.798Z,50.0752
2022-08-03T19:56:30.232Z,50.1709
2022-08-03T19:58:29.814Z,50.34766
2022-08-03T20:00:38.233Z,50.54688
2022-08-03T20:02:30.126Z,50.6582
2022-08-03T20:05:22.777Z,51.12988
2022-08-03T20:07:23.834Z,51.37402
2022-08-03T20:09:21.860Z,52.03223
2022-08-03T20:11:29.202Z,52.03223
2022-08-03T20:13:28.592Z,52.36621
2022-08-03T20:15:32.069Z,52.58984
2022-08-03T20:17:22.023Z,52.3916
2022-08-03T20:21:15.705Z,53.14258
2022-08-03T20:23:07.888Z,53.30762
2022-08-03T20:25:10.737Z,53.7666
2022-08-03T20:27:11.261Z,54.17578
2022-08-03T20:29:10.398Z,53.68262
2022-08-03T20:31:07.870Z,54.10742
2022-08-03T20:33:07.844Z,54.60938
2022-08-03T20:36:11.460Z,54.78125
2022-08-03T20:38:09.873Z,54.97656
2022-08-03T20:40:10.543Z,54.8584
2022-08-03T20:42:12.723Z,55.07422
2022-08-03T20:44:09.859Z,54.91016
2022-08-03T20:48:09.877Z,55.15234
2022-08-03T20:51:49.306Z,55.06934
2022-08-03T20:53:41.384Z,55.08105
2022-08-03T20:55:47.353Z,54.99805
2022-08-03T20:57:21.762Z,55.27539
2022-08-03T20:59:21.690Z,55.33984
2022-08-03T21:01:36.050Z,55.82617
2022-08-03T21:03:21.689Z,56.15918
2022-08-03T21:06:40.411Z,56.25098
2022-08-03T21:08:48.092Z,56.2041
2022-08-03T21:10:38.873Z,56.25879
2022-08-03T21:12:41.502Z,56.71777
2022-08-03T21:13:00.238Z,50.44629
2022-08-03T21:13:11.614Z,55.1875
2022-08-03T21:14:38.714Z,56.20605
2022-08-03T21:16:38.774Z,56.61523
2022-08-03T21:18:38.718Z,56.9668
2022-08-03T21:21:28.490Z,56.25195
2022-08-03T21:23:40.180Z,56.72754
2022-08-03T21:25:28.458Z,56.57715
2022-08-03T21:27:28.519Z,56.75293
2022-08-03T21:29:28.483Z,56.71094
2022-08-03T21:31:28.454Z,57.14648
2022-08-03T21:33:28.419Z,57.32031
2022-08-03T21:36:55.772Z,57.45996
2022-08-03T21:38:57.212Z,57.97363
2022-08-03T21:40:55.755Z,57.9834
2022-08-03T21:42:55.746Z,58.1377
2022-08-03T21:44:55.815Z,57.94824
2022-08-03T21:46:55.745Z,58.09961
2022-08-03T21:48:55.769Z,58.05664
2022-08-03T21:51:32.710Z,58
2022-08-03T21:54:02.253Z,58.01172
2022-08-03T21:55:32.690Z,58.37598
2022-08-03T21:57:32.693Z,58.1377
2022-08-03T21:59:32.715Z,58.41309
2022-08-03T22:01:35.872Z,58.5332
2022-08-03T22:03:52.910Z,58.53613
2022-08-03T22:06:27.209Z,58.64941
2022-08-03T22:08:23.474Z,60.03809
2022-08-03T22:10:23.492Z,59.625
2022-08-03T22:12:23.524Z,59.40137
2022-08-03T22:14:23.507Z,59.22754
2022-08-03T22:16:23.563Z,59.46484
2022-08-03T22:18:23.519Z,59.70117
2022-08-03T22:20:23.491Z,59.49707
2022-08-03T22:22:21.651Z,59.57715
2022-08-03T22:24:24.195Z,60.03906
2022-08-03T22:26:32.574Z,59.95703
2022-08-03T22:28:21.842Z,59.93652
2022-08-03T22:30:22.925Z,59.49414
2022-08-03T22:32:21.712Z,59.58594
2022-08-03T22:34:27.151Z,59.82813
2022-08-03T22:36:52.017Z,60.29785
2022-08-03T22:38:52.102Z,59.89453
2022-08-03T22:40:52.019Z,61.34961
2022-08-03T22:42:52.777Z,62.93848
2022-08-03T22:44:51.985Z,62.20898
2022-08-03T22:46:51.970Z,61.8418
2022-08-03T22:48:51.989Z,61.27539
2022-08-03T22:52:15.060Z,61.02344
2022-08-03T22:54:15.097Z,61.20117
2022-08-03T22:56:15.118Z,61.09375
2022-08-03T22:58:15.094Z,60.95898
2022-08-03T23:00:15.078Z,61.3252
2022-08-03T23:02:21.643Z,61.39063
2022-08-03T23:04:15.190Z,61.62695
2022-08-03T23:07:38.218Z,61.81836
2022-08-03T23:09:38.314Z,61.76465
2022-08-03T23:11:45.845Z,61.4375
2022-08-03T23:13:38.237Z,61.25391
2022-08-03T23:15:38.187Z,61.22461
2022-08-03T23:17:57.299Z,61.46289
2022-08-03T23:19:44.973Z,61.50391
2022-08-03T23:22:43.128Z,61.54004
2022-08-03T23:24:39.883Z,61.9082
2022-08-03T23:26:39.888Z,61.63379
2022-08-03T23:28:39.886Z,61.87402
2022-08-03T23:30:41.841Z,61.67578
2022-08-03T23:32:39.941Z,61.87109
2022-08-03T23:34:39.888Z,61.53223
2022-08-03T23:38:22.577Z,61.60254
2022-08-03T23:40:01.346Z,61.82031
2022-08-03T23:42:01.797Z,61.85938
2022-08-03T23:44:01.518Z,62.19629
2022-08-03T23:46:01.462Z,62.07324
2022-08-03T23:48:01.483Z,62.13867
2022-08-03T23:50:01.480Z,62.61816
2022-08-03T23:52:53.707Z,62.19336
2022-08-03T23:54:53.719Z,62.47852
2022-08-03T23:56:53.708Z,62.45313
2022-08-03T23:58:53.743Z,62.3125
